sensor_id;sensor_type;location;lat;lon;timestamp;P1;durP1;ratioP1;P2;durP2;ratioP2
76896;SDS011;65856;52.178;21.176;2024-02-26T00:01:31;37.00;;;18.50;;
76896;SDS011;65856;52.178;21.176;2024-02-26T00:03:58;31.80;;;16.60;;
76896;SDS011;65856;52.178;21.176;2024-02-26T00:06:24;41.00;;;20.50;;
76896;SDS011;65856;52.178;21.176;2024-02-26T00:08:50;48.00;;;23.20;;
76896;SDS011;65856;52.178;21.176;2024-02-26T00:11:15;53.60;;;26.00;;
76896;SDS011;65856;52.178;21.176;2024-02-26T00:13:41;45.50;;;21.30;;
76896;SDS011;65856;52.178;21.176;2024-02-26T00:16:06;49.60;;;23.50;;
76896;SDS011;65856;52.178;21.176;2024-02-26T00:18:32;41.10;;;20.60;;
76896;SDS011;65856;52.178;21.176;2024-02-26T00:20:58;44.60;;;20.20;;
76896;SDS011;65856;52.178;21.176;2024-02-26T00:23:24;35.20;;;16.90;;
76896;SDS011;65856;52.178;21.176;2024-02-26T00:25:49;35.40;;;16.70;;
76896;SDS011;65856;52.178;21.176;2024-02-26T00:28:14;38.80;;;18.60;;
76896;SDS011;65856;52.178;21.176;2024-02-26T00:30:40;42.20;;;18.80;;
76896;SDS011;65856;52.178;21.176;2024-02-26T00:33:05;35.00;;;17.10;;
76896;SDS011;65856;52.178;21.176;2024-02-26T00:35:31;35.10;;;17.00;;
76896;SDS011;65856;52.178;21.176;2024-02-26T00:37:56;33.90;;;15.80;;
76896;SDS011;65856;52.178;21.176;2024-02-26T00:40:23;37.00;;;17.80;;
76896;SDS011;65856;52.178;21.176;2024-02-26T00:42:49;41.40;;;18.80;;
76896;SDS011;65856;52.178;21.176;2024-02-26T00:45:15;36.20;;;17.30;;
76896;SDS011;65856;52.178;21.176;2024-02-26T00:47:41;30.10;;;14.60;;
76896;SDS011;65856;52.178;21.176;2024-02-26T00:50:08;28.30;;;14.60;;
76896;SDS011;65856;52.178;21.176;2024-02-26T00:52:34;37.50;;;15.70;;
76896;SDS011;65856;52.178;21.176;2024-02-26T00:55:01;34.80;;;16.30;;
76896;SDS011;65856;52.178;21.176;2024-02-26T00:57:27;28.00;;;14.10;;
76896;SDS011;65856;52.178;21.176;2024-02-26T00:59:53;31.30;;;15.30;;
76896;SDS011;65856;52.178;21.176;2024-02-26T01:02:20;28.70;;;14.20;;
76896;SDS011;65856;52.178;21.176;2024-02-26T01:04:45;27.90;;;14.30;;
76896;SDS011;65856;52.178;21.176;2024-02-26T01:07:11;26.50;;;14.30;;
76896;SDS011;65856;52.178;21.176;2024-02-26T01:09:36;30.80;;;15.70;;
76896;SDS011;65856;52.178;21.176;2024-02-26T01:12:02;33.70;;;17.60;;
76896;SDS011;65856;52.178;21.176;2024-02-26T01:14:28;27.80;;;14.30;;
76896;SDS011;65856;52.178;21.176;2024-02-26T01:16:53;30.90;;;16.00;;
76896;SDS011;65856;52.178;21.176;2024-02-26T01:19:19;32.10;;;15.20;;
76896;SDS011;65856;52.178;21.176;2024-02-26T01:21:44;33.10;;;15.80;;
76896;SDS011;65856;52.178;21.176;2024-02-26T01:24:10;30.30;;;14.40;;
76896;SDS011;65856;52.178;21.176;2024-02-26T01:26:35;33.50;;;15.60;;
76896;SDS011;65856;52.178;21.176;2024-02-26T01:29:01;29.90;;;14.10;;
76896;SDS011;65856;52.178;21.176;2024-02-26T01:31:26;31.40;;;14.90;;
76896;SDS011;65856;52.178;21.176;2024-02-26T01:33:52;34.70;;;15.50;;
76896;SDS011;65856;52.178;21.176;2024-02-26T01:36:18;37.10;;;15.60;;
76896;SDS011;65856;52.178;21.176;2024-02-26T01:38:43;33.90;;;15.00;;
76896;SDS011;65856;52.178;21.176;2024-02-26T01:41:08;34.10;;;14.40;;
76896;SDS011;65856;52.178;21.176;2024-02-26T01:43:34;35.00;;;14.70;;
76896;SDS011;65856;52.178;21.176;2024-02-26T01:45:59;34.10;;;14.40;;
76896;SDS011;65856;52.178;21.176;2024-02-26T01:48:25;27.00;;;13.70;;
76896;SDS011;65856;52.178;21.176;2024-02-26T01:50:51;30.70;;;14.30;;
76896;SDS011;65856;52.178;21.176;2024-02-26T01:53:16;31.80;;;13.50;;
76896;SDS011;65856;52.178;21.176;2024-02-26T01:55:42;30.90;;;13.90;;
76896;SDS011;65856;52.178;21.176;2024-02-26T01:58:08;29.90;;;13.80;;
76896;SDS011;65856;52.178;21.176;2024-02-26T02:00:34;31.30;;;14.00;;
76896;SDS011;65856;52.178;21.176;2024-02-26T02:03:01;32.20;;;13.60;;
76896;SDS011;65856;52.178;21.176;2024-02-26T02:05:28;30.40;;;13.50;;
76896;SDS011;65856;52.178;21.176;2024-02-26T02:07:54;28.40;;;13.50;;
76896;SDS011;65856;52.178;21.176;2024-02-26T02:10:20;31.00;;;13.50;;
76896;SDS011;65856;52.178;21.176;2024-02-26T02:12:50;25.50;;;12.70;;
76896;SDS011;65856;52.178;21.176;2024-02-26T02:15:16;35.10;;;14.40;;
76896;SDS011;65856;52.178;21.176;2024-02-26T02:17:42;34.10;;;13.80;;
76896;SDS011;65856;52.178;21.176;2024-02-26T02:20:17;33.20;;;13.00;;
76896;SDS011;65856;52.178;21.176;2024-02-26T02:22:46;26.20;;;12.40;;
76896;SDS011;65856;52.178;21.176;2024-02-26T02:25:12;34.30;;;14.10;;
76896;SDS011;65856;52.178;21.176;2024-02-26T02:27:39;37.30;;;13.70;;
76896;SDS011;65856;52.178;21.176;2024-02-26T02:30:08;33.30;;;13.60;;
76896;SDS011;65856;52.178;21.176;2024-02-26T02:32:35;32.90;;;13.60;;
76896;SDS011;65856;52.178;21.176;2024-02-26T02:35:03;32.10;;;14.70;;
76896;SDS011;65856;52.178;21.176;2024-02-26T02:37:29;44.70;;;20.10;;
76896;SDS011;65856;52.178;21.176;2024-02-26T02:39:55;38.80;;;16.90;;
76896;SDS011;65856;52.178;21.176;2024-02-26T02:42:22;25.30;;;12.10;;
76896;SDS011;65856;52.178;21.176;2024-02-26T02:44:48;36.60;;;14.20;;
76896;SDS011;65856;52.178;21.176;2024-02-26T02:47:13;34.00;;;13.30;;
76896;SDS011;65856;52.178;21.176;2024-02-26T02:49:38;35.50;;;13.90;;
76896;SDS011;65856;52.178;21.176;2024-02-26T02:52:04;33.60;;;14.50;;
76896;SDS011;65856;52.178;21.176;2024-02-26T02:54:29;34.70;;;13.80;;
76896;SDS011;65856;52.178;21.176;2024-02-26T02:56:55;37.90;;;13.50;;
76896;SDS011;65856;52.178;21.176;2024-02-26T02:59:20;34.40;;;13.20;;
76896;SDS011;65856;52.178;21.176;2024-02-26T03:01:45;28.30;;;11.90;;
76896;SDS011;65856;52.178;21.176;2024-02-26T03:04:11;30.20;;;12.60;;
76896;SDS011;65856;52.178;21.176;2024-02-26T03:06:37;28.50;;;12.40;;
76896;SDS011;65856;52.178;21.176;2024-02-26T03:09:02;27.70;;;11.50;;
76896;SDS011;65856;52.178;21.176;2024-02-26T03:11:28;25.40;;;12.80;;
76896;SDS011;65856;52.178;21.176;2024-02-26T03:13:53;26.00;;;12.20;;
76896;SDS011;65856;52.178;21.176;2024-02-26T03:16:18;24.90;;;12.40;;
76896;SDS011;65856;52.178;21.176;2024-02-26T03:18:44;26.90;;;12.90;;
76896;SDS011;65856;52.178;21.176;2024-02-26T03:21:09;35.10;;;16.00;;
76896;SDS011;65856;52.178;21.176;2024-02-26T03:23:35;41.80;;;19.80;;
76896;SDS011;65856;52.178;21.176;2024-02-26T03:26:04;37.00;;;17.70;;
76896;SDS011;65856;52.178;21.176;2024-02-26T03:28:30;33.30;;;16.00;;
76896;SDS011;65856;52.178;21.176;2024-02-26T03:30:58;27.10;;;12.40;;
76896;SDS011;65856;52.178;21.176;2024-02-26T03:33:24;21.90;;;11.10;;
76896;SDS011;65856;52.178;21.176;2024-02-26T03:35:49;20.10;;;11.20;;
76896;SDS011;65856;52.178;21.176;2024-02-26T03:38:15;26.10;;;10.80;;
76896;SDS011;65856;52.178;21.176;2024-02-26T03:40:40;23.50;;;11.00;;
76896;SDS011;65856;52.178;21.176;2024-02-26T03:43:06;20.60;;;11.30;;
76896;SDS011;65856;52.178;21.176;2024-02-26T03:45:32;17.60;;;9.50;;
76896;SDS011;65856;52.178;21.176;2024-02-26T03:47:58;17.90;;;9.90;;
76896;SDS011;65856;52.178;21.176;2024-02-26T03:50:24;17.70;;;9.90;;
76896;SDS011;65856;52.178;21.176;2024-02-26T03:52:50;19.00;;;10.00;;
76896;SDS011;65856;52.178;21.176;2024-02-26T03:55:15;22.00;;;9.90;;
76896;SDS011;65856;52.178;21.176;2024-02-26T03:57:43;18.30;;;9.70;;
76896;SDS011;65856;52.178;21.176;2024-02-26T04:00:09;19.90;;;10.30;;
76896;SDS011;65856;52.178;21.176;2024-02-26T04:02:35;20.80;;;10.00;;
76896;SDS011;65856;52.178;21.176;2024-02-26T04:05:00;18.50;;;9.90;;
76896;SDS011;65856;52.178;21.176;2024-02-26T04:07:25;18.30;;;9.60;;
76896;SDS011;65856;52.178;21.176;2024-02-26T04:09:51;16.60;;;9.00;;
76896;SDS011;65856;52.178;21.176;2024-02-26T04:12:16;19.60;;;9.40;;
76896;SDS011;65856;52.178;21.176;2024-02-26T04:14:42;18.80;;;9.70;;
76896;SDS011;65856;52.178;21.176;2024-02-26T04:17:07;18.80;;;10.10;;
76896;SDS011;65856;52.178;21.176;2024-02-26T04:19:33;18.80;;;9.90;;
76896;SDS011;65856;52.178;21.176;2024-02-26T04:21:59;19.20;;;9.20;;
76896;SDS011;65856;52.178;21.176;2024-02-26T04:24:24;20.70;;;9.90;;
76896;SDS011;65856;52.178;21.176;2024-02-26T04:26:50;17.70;;;9.80;;
76896;SDS011;65856;52.178;21.176;2024-02-26T04:29:15;16.20;;;8.70;;
76896;SDS011;65856;52.178;21.176;2024-02-26T04:31:40;15.60;;;9.10;;
76896;SDS011;65856;52.178;21.176;2024-02-26T04:34:08;19.20;;;9.80;;
76896;SDS011;65856;52.178;21.176;2024-02-26T04:36:33;19.00;;;9.50;;
76896;SDS011;65856;52.178;21.176;2024-02-26T04:38:59;21.10;;;9.80;;
76896;SDS011;65856;52.178;21.176;2024-02-26T04:41:24;18.30;;;9.30;;
76896;SDS011;65856;52.178;21.176;2024-02-26T04:43:49;19.90;;;10.20;;
76896;SDS011;65856;52.178;21.176;2024-02-26T04:46:15;19.90;;;9.70;;
76896;SDS011;65856;52.178;21.176;2024-02-26T04:48:40;22.90;;;10.70;;
76896;SDS011;65856;52.178;21.176;2024-02-26T04:51:07;19.70;;;10.70;;
76896;SDS011;65856;52.178;21.176;2024-02-26T04:53:32;18.80;;;9.60;;
76896;SDS011;65856;52.178;21.176;2024-02-26T04:55:58;20.50;;;10.70;;
76896;SDS011;65856;52.178;21.176;2024-02-26T04:58:23;17.20;;;9.30;;
76896;SDS011;65856;52.178;21.176;2024-02-26T05:00:49;19.20;;;9.70;;
76896;SDS011;65856;52.178;21.176;2024-02-26T05:03:14;17.70;;;10.40;;
76896;SDS011;65856;52.178;21.176;2024-02-26T05:05:44;18.80;;;9.90;;
76896;SDS011;65856;52.178;21.176;2024-02-26T05:08:09;19.80;;;10.60;;
76896;SDS011;65856;52.178;21.176;2024-02-26T05:10:37;17.60;;;9.70;;
76896;SDS011;65856;52.178;21.176;2024-02-26T05:13:05;17.20;;;8.80;;
76896;SDS011;65856;52.178;21.176;2024-02-26T05:15:31;18.00;;;9.20;;
76896;SDS011;65856;52.178;21.176;2024-02-26T05:17:57;17.40;;;9.30;;
76896;SDS011;65856;52.178;21.176;2024-02-26T05:20:23;17.20;;;9.60;;
76896;SDS011;65856;52.178;21.176;2024-02-26T05:22:48;19.00;;;9.60;;
76896;SDS011;65856;52.178;21.176;2024-02-26T05:25:15;16.80;;;8.90;;
76896;SDS011;65856;52.178;21.176;2024-02-26T05:27:41;19.60;;;9.80;;
76896;SDS011;65856;52.178;21.176;2024-02-26T05:30:09;23.20;;;10.30;;
76896;SDS011;65856;52.178;21.176;2024-02-26T05:32:35;19.00;;;10.50;;
76896;SDS011;65856;52.178;21.176;2024-02-26T05:35:01;21.70;;;10.60;;
76896;SDS011;65856;52.178;21.176;2024-02-26T05:37:29;18.90;;;10.00;;
76896;SDS011;65856;52.178;21.176;2024-02-26T05:39:54;22.30;;;11.60;;
76896;SDS011;65856;52.178;21.176;2024-02-26T05:42:20;18.20;;;9.80;;
76896;SDS011;65856;52.178;21.176;2024-02-26T05:44:45;20.00;;;9.40;;
76896;SDS011;65856;52.178;21.176;2024-02-26T05:47:11;19.90;;;9.80;;
76896;SDS011;65856;52.178;21.176;2024-02-26T05:49:37;18.50;;;9.60;;
76896;SDS011;65856;52.178;21.176;2024-02-26T05:52:02;20.90;;;9.80;;
76896;SDS011;65856;52.178;21.176;2024-02-26T05:54:28;17.00;;;9.10;;
76896;SDS011;65856;52.178;21.176;2024-02-26T05:56:53;20.30;;;10.40;;
76896;SDS011;65856;52.178;21.176;2024-02-26T05:59:18;18.20;;;10.40;;
76896;SDS011;65856;52.178;21.176;2024-02-26T06:01:44;17.60;;;9.90;;
76896;SDS011;65856;52.178;21.176;2024-02-26T06:04:09;18.30;;;10.40;;
76896;SDS011;65856;52.178;21.176;2024-02-26T06:06:35;20.60;;;9.80;;
76896;SDS011;65856;52.178;21.176;2024-02-26T06:09:00;20.10;;;9.50;;
76896;SDS011;65856;52.178;21.176;2024-02-26T06:11:25;18.50;;;10.50;;
76896;SDS011;65856;52.178;21.176;2024-02-26T06:13:51;18.40;;;9.40;;
76896;SDS011;65856;52.178;21.176;2024-02-26T06:16:16;19.10;;;9.90;;
76896;SDS011;65856;52.178;21.176;2024-02-26T06:18:42;17.70;;;9.90;;
76896;SDS011;65856;52.178;21.176;2024-02-26T06:21:10;18.70;;;9.10;;
76896;SDS011;65856;52.178;21.176;2024-02-26T06:23:36;19.90;;;10.70;;
76896;SDS011;65856;52.178;21.176;2024-02-26T06:26:03;19.10;;;9.50;;
76896;SDS011;65856;52.178;21.176;2024-02-26T06:28:28;22.80;;;10.70;;
76896;SDS011;65856;52.178;21.176;2024-02-26T06:30:55;23.30;;;12.60;;
76896;SDS011;65856;52.178;21.176;2024-02-26T06:33:21;21.20;;;11.50;;
76896;SDS011;65856;52.178;21.176;2024-02-26T06:35:46;24.00;;;12.00;;
76896;SDS011;65856;52.178;21.176;2024-02-26T06:38:12;19.90;;;10.60;;
76896;SDS011;65856;52.178;21.176;2024-02-26T06:40:39;22.10;;;11.50;;
76896;SDS011;65856;52.178;21.176;2024-02-26T06:43:05;24.80;;;12.10;;
76896;SDS011;65856;52.178;21.176;2024-02-26T06:45:31;28.90;;;11.30;;
76896;SDS011;65856;52.178;21.176;2024-02-26T06:47:56;19.00;;;10.90;;
76896;SDS011;65856;52.178;21.176;2024-02-26T06:50:22;20.70;;;11.70;;
76896;SDS011;65856;52.178;21.176;2024-02-26T06:52:47;27.70;;;13.60;;
76896;SDS011;65856;52.178;21.176;2024-02-26T06:55:13;25.10;;;14.80;;
76896;SDS011;65856;52.178;21.176;2024-02-26T06:57:39;25.90;;;13.70;;
76896;SDS011;65856;52.178;21.176;2024-02-26T07:00:04;30.10;;;15.00;;
76896;SDS011;65856;52.178;21.176;2024-02-26T07:02:30;84.10;;;16.90;;
76896;SDS011;65856;52.178;21.176;2024-02-26T07:04:56;31.50;;;13.70;;
76896;SDS011;65856;52.178;21.176;2024-02-26T07:07:23;78.10;;;16.70;;
76896;SDS011;65856;52.178;21.176;2024-02-26T07:09:49;33.50;;;13.80;;
76896;SDS011;65856;52.178;21.176;2024-02-26T07:12:15;31.90;;;13.40;;
76896;SDS011;65856;52.178;21.176;2024-02-26T07:14:41;24.30;;;12.50;;
76896;SDS011;65856;52.178;21.176;2024-02-26T07:17:07;24.20;;;12.80;;
76896;SDS011;65856;52.178;21.176;2024-02-26T07:19:34;45.00;;;14.70;;
76896;SDS011;65856;52.178;21.176;2024-02-26T07:21:59;30.20;;;13.20;;
76896;SDS011;65856;52.178;21.176;2024-02-26T07:24:27;30.00;;;13.40;;
76896;SDS011;65856;52.178;21.176;2024-02-26T07:26:53;25.30;;;13.60;;
76896;SDS011;65856;52.178;21.176;2024-02-26T07:29:21;35.20;;;14.60;;
76896;SDS011;65856;52.178;21.176;2024-02-26T07:31:47;26.30;;;13.90;;
76896;SDS011;65856;52.178;21.176;2024-02-26T07:34:12;22.40;;;13.50;;
76896;SDS011;65856;52.178;21.176;2024-02-26T07:36:38;24.30;;;13.40;;
76896;SDS011;65856;52.178;21.176;2024-02-26T07:39:04;23.40;;;13.00;;
76896;SDS011;65856;52.178;21.176;2024-02-26T07:41:29;23.20;;;13.20;;
76896;SDS011;65856;52.178;21.176;2024-02-26T07:43:54;21.10;;;12.40;;
76896;SDS011;65856;52.178;21.176;2024-02-26T07:46:20;25.80;;;12.80;;
76896;SDS011;65856;52.178;21.176;2024-02-26T07:48:45;25.50;;;13.40;;
76896;SDS011;65856;52.178;21.176;2024-02-26T07:51:14;21.90;;;13.10;;
76896;SDS011;65856;52.178;21.176;2024-02-26T07:53:40;26.00;;;12.80;;
76896;SDS011;65856;52.178;21.176;2024-02-26T07:56:06;22.40;;;13.20;;
76896;SDS011;65856;52.178;21.176;2024-02-26T07:58:34;24.50;;;12.80;;
76896;SDS011;65856;52.178;21.176;2024-02-26T08:01:00;21.40;;;12.30;;
76896;SDS011;65856;52.178;21.176;2024-02-26T08:03:25;17.00;;;11.90;;
76896;SDS011;65856;52.178;21.176;2024-02-26T08:05:51;22.30;;;11.40;;
76896;SDS011;65856;52.178;21.176;2024-02-26T08:08:17;17.30;;;11.00;;
76896;SDS011;65856;52.178;21.176;2024-02-26T08:10:42;17.70;;;11.30;;
76896;SDS011;65856;52.178;21.176;2024-02-26T08:13:08;16.50;;;11.60;;
76896;SDS011;65856;52.178;21.176;2024-02-26T08:15:35;15.90;;;10.90;;
76896;SDS011;65856;52.178;21.176;2024-02-26T08:18:02;16.80;;;10.80;;
76896;SDS011;65856;52.178;21.176;2024-02-26T08:20:29;17.80;;;11.30;;
76896;SDS011;65856;52.178;21.176;2024-02-26T08:22:55;16.50;;;10.90;;
76896;SDS011;65856;52.178;21.176;2024-02-26T08:25:21;15.10;;;10.00;;
76896;SDS011;65856;52.178;21.176;2024-02-26T08:27:47;13.30;;;10.50;;
76896;SDS011;65856;52.178;21.176;2024-02-26T08:30:14;14.50;;;10.40;;
76896;SDS011;65856;52.178;21.176;2024-02-26T08:32:45;57.00;;;11.60;;
76896;SDS011;65856;52.178;21.176;2024-02-26T08:35:12;15.30;;;9.70;;
76896;SDS011;65856;52.178;21.176;2024-02-26T08:37:38;14.20;;;10.00;;
76896;SDS011;65856;52.178;21.176;2024-02-26T08:40:04;14.70;;;9.40;;
76896;SDS011;65856;52.178;21.176;2024-02-26T08:42:30;15.90;;;10.70;;
76896;SDS011;65856;52.178;21.176;2024-02-26T08:44:56;16.60;;;9.90;;
76896;SDS011;65856;52.178;21.176;2024-02-26T08:47:21;14.30;;;10.00;;
76896;SDS011;65856;52.178;21.176;2024-02-26T08:49:47;17.10;;;10.30;;
76896;SDS011;65856;52.178;21.176;2024-02-26T08:52:12;18.20;;;10.00;;
76896;SDS011;65856;52.178;21.176;2024-02-26T08:54:38;16.20;;;9.70;;
76896;SDS011;65856;52.178;21.176;2024-02-26T08:57:04;16.40;;;9.50;;
76896;SDS011;65856;52.178;21.176;2024-02-26T08:59:30;13.10;;;9.10;;
76896;SDS011;65856;52.178;21.176;2024-02-26T09:01:56;14.10;;;9.50;;
76896;SDS011;65856;52.178;21.176;2024-02-26T09:04:21;13.60;;;10.10;;
76896;SDS011;65856;52.178;21.176;2024-02-26T09:06:47;16.80;;;10.10;;
76896;SDS011;65856;52.178;21.176;2024-02-26T09:09:12;13.80;;;10.10;;
76896;SDS011;65856;52.178;21.176;2024-02-26T09:11:38;14.00;;;10.20;;
76896;SDS011;65856;52.178;21.176;2024-02-26T09:14:03;14.40;;;9.70;;
76896;SDS011;65856;52.178;21.176;2024-02-26T09:16:29;14.00;;;9.90;;
76896;SDS011;65856;52.178;21.176;2024-02-26T09:18:56;12.20;;;9.10;;
76896;SDS011;65856;52.178;21.176;2024-02-26T09:21:21;14.20;;;9.20;;
76896;SDS011;65856;52.178;21.176;2024-02-26T09:23:52;16.00;;;9.50;;
76896;SDS011;65856;52.178;21.176;2024-02-26T09:26:18;15.50;;;10.20;;
76896;SDS011;65856;52.178;21.176;2024-02-26T09:28:44;12.80;;;9.50;;
76896;SDS011;65856;52.178;21.176;2024-02-26T09:31:10;13.70;;;9.40;;
76896;SDS011;65856;52.178;21.176;2024-02-26T09:33:35;13.10;;;9.70;;
76896;SDS011;65856;52.178;21.176;2024-02-26T09:36:01;12.80;;;10.30;;
76896;SDS011;65856;52.178;21.176;2024-02-26T09:38:27;15.30;;;10.40;;
76896;SDS011;65856;52.178;21.176;2024-02-26T09:40:53;13.70;;;10.60;;
76896;SDS011;65856;52.178;21.176;2024-02-26T09:43:21;15.50;;;11.20;;
76896;SDS011;65856;52.178;21.176;2024-02-26T09:45:53;13.20;;;10.10;;
76896;SDS011;65856;52.178;21.176;2024-02-26T09:48:19;15.50;;;10.50;;
76896;SDS011;65856;52.178;21.176;2024-02-26T09:50:45;14.80;;;10.20;;
76896;SDS011;65856;52.178;21.176;2024-02-26T09:53:12;12.80;;;9.10;;
76896;SDS011;65856;52.178;21.176;2024-02-26T09:55:40;13.70;;;10.10;;
76896;SDS011;65856;52.178;21.176;2024-02-26T09:58:06;13.90;;;9.90;;
76896;SDS011;65856;52.178;21.176;2024-02-26T10:00:37;14.80;;;10.00;;
76896;SDS011;65856;52.178;21.176;2024-02-26T10:03:09;13.90;;;10.10;;
76896;SDS011;65856;52.178;21.176;2024-02-26T10:05:38;15.80;;;9.80;;
76896;SDS011;65856;52.178;21.176;2024-02-26T10:08:06;15.70;;;10.60;;
76896;SDS011;65856;52.178;21.176;2024-02-26T10:10:33;12.00;;;9.70;;
76896;SDS011;65856;52.178;21.176;2024-02-26T10:12:59;14.80;;;10.50;;
76896;SDS011;65856;52.178;21.176;2024-02-26T10:15:25;14.30;;;10.40;;
76896;SDS011;65856;52.178;21.176;2024-02-26T10:17:51;17.00;;;10.30;;
76896;SDS011;65856;52.178;21.176;2024-02-26T10:20:17;12.70;;;9.60;;
76896;SDS011;65856;52.178;21.176;2024-02-26T10:22:44;12.80;;;9.60;;
76896;SDS011;65856;52.178;21.176;2024-02-26T10:25:10;15.30;;;9.40;;
76896;SDS011;65856;52.178;21.176;2024-02-26T10:27:35;15.20;;;9.20;;
76896;SDS011;65856;52.178;21.176;2024-02-26T10:30:26;13.40;;;10.00;;
76896;SDS011;65856;52.178;21.176;2024-02-26T10:32:51;11.70;;;8.10;;
76896;SDS011;65856;52.178;21.176;2024-02-26T10:35:18;11.40;;;7.70;;
76896;SDS011;65856;52.178;21.176;2024-02-26T10:37:46;13.90;;;8.70;;
76896;SDS011;65856;52.178;21.176;2024-02-26T10:40:13;13.60;;;8.40;;
76896;SDS011;65856;52.178;21.176;2024-02-26T10:42:40;11.40;;;8.50;;
76896;SDS011;65856;52.178;21.176;2024-02-26T10:45:07;11.20;;;7.80;;
76896;SDS011;65856;52.178;21.176;2024-02-26T10:47:37;11.20;;;8.10;;
76896;SDS011;65856;52.178;21.176;2024-02-26T10:50:04;12.10;;;7.90;;
76896;SDS011;65856;52.178;21.176;2024-02-26T10:52:32;10.70;;;7.70;;
76896;SDS011;65856;52.178;21.176;2024-02-26T10:55:03;10.30;;;7.60;;
76896;SDS011;65856;52.178;21.176;2024-02-26T10:57:38;12.30;;;7.70;;
76896;SDS011;65856;52.178;21.176;2024-02-26T11:00:06;10.50;;;7.70;;
76896;SDS011;65856;52.178;21.176;2024-02-26T11:02:33;10.60;;;7.80;;
76896;SDS011;65856;52.178;21.176;2024-02-26T11:05:02;9.70;;;6.80;;
76896;SDS011;65856;52.178;21.176;2024-02-26T11:07:29;9.40;;;7.30;;
76896;SDS011;65856;52.178;21.176;2024-02-26T11:09:56;10.40;;;7.30;;
76896;SDS011;65856;52.178;21.176;2024-02-26T11:12:24;13.10;;;6.90;;
76896;SDS011;65856;52.178;21.176;2024-02-26T11:14:49;9.20;;;7.30;;
76896;SDS011;65856;52.178;21.176;2024-02-26T11:17:21;10.90;;;7.10;;
76896;SDS011;65856;52.178;21.176;2024-02-26T11:19:48;8.90;;;6.70;;
76896;SDS011;65856;52.178;21.176;2024-02-26T11:22:15;8.70;;;6.20;;
76896;SDS011;65856;52.178;21.176;2024-02-26T11:24:40;10.30;;;6.20;;
76896;SDS011;65856;52.178;21.176;2024-02-26T11:27:09;9.70;;;6.20;;
76896;SDS011;65856;52.178;21.176;2024-02-26T11:29:44;9.70;;;5.90;;
76896;SDS011;65856;52.178;21.176;2024-02-26T11:32:13;7.70;;;5.50;;
76896;SDS011;65856;52.178;21.176;2024-02-26T11:34:40;7.40;;;5.70;;
76896;SDS011;65856;52.178;21.176;2024-02-26T11:37:13;7.40;;;5.40;;
76896;SDS011;65856;52.178;21.176;2024-02-26T11:39:43;9.10;;;5.10;;
76896;SDS011;65856;52.178;21.176;2024-02-26T11:42:13;7.50;;;4.90;;
76896;SDS011;65856;52.178;21.176;2024-02-26T11:44:40;7.10;;;5.30;;
76896;SDS011;65856;52.178;21.176;2024-02-26T11:47:14;5.70;;;4.50;;
76896;SDS011;65856;52.178;21.176;2024-02-26T11:49:43;6.40;;;4.40;;
76896;SDS011;65856;52.178;21.176;2024-02-26T11:52:10;6.30;;;4.40;;
76896;SDS011;65856;52.178;21.176;2024-02-26T11:54:56;5.10;;;4.20;;
76896;SDS011;65856;52.178;21.176;2024-02-26T11:57:25;5.80;;;3.90;;
76896;SDS011;65856;52.178;21.176;2024-02-26T11:59:53;7.80;;;4.20;;
76896;SDS011;65856;52.178;21.176;2024-02-26T12:02:41;6.30;;;4.00;;
76896;SDS011;65856;52.178;21.176;2024-02-26T12:05:19;4.50;;;3.80;;
76896;SDS011;65856;52.178;21.176;2024-02-26T12:08:01;5.60;;;3.40;;
76896;SDS011;65856;52.178;21.176;2024-02-26T12:10:36;4.10;;;3.30;;
76896;SDS011;65856;52.178;21.176;2024-02-26T12:13:13;5.30;;;2.90;;
76896;SDS011;65856;52.178;21.176;2024-02-26T12:15:43;3.50;;;2.90;;
76896;SDS011;65856;52.178;21.176;2024-02-26T12:18:15;3.70;;;3.00;;
76896;SDS011;65856;52.178;21.176;2024-02-26T12:20:42;7.30;;;2.90;;
76896;SDS011;65856;52.178;21.176;2024-02-26T12:23:14;3.30;;;2.80;;
76896;SDS011;65856;52.178;21.176;2024-02-26T12:25:41;3.70;;;3.00;;
76896;SDS011;65856;52.178;21.176;2024-02-26T12:28:09;4.00;;;2.90;;
76896;SDS011;65856;52.178;21.176;2024-02-26T12:30:34;3.60;;;2.90;;
76896;SDS011;65856;52.178;21.176;2024-02-26T12:33:00;3.20;;;2.80;;
76896;SDS011;65856;52.178;21.176;2024-02-26T12:35:29;4.10;;;2.80;;
76896;SDS011;65856;52.178;21.176;2024-02-26T12:37:58;3.90;;;2.70;;
76896;SDS011;65856;52.178;21.176;2024-02-26T12:40:23;4.20;;;2.40;;
76896;SDS011;65856;52.178;21.176;2024-02-26T12:42:49;2.60;;;2.40;;
76896;SDS011;65856;52.178;21.176;2024-02-26T12:45:15;3.50;;;2.50;;
76896;SDS011;65856;52.178;21.176;2024-02-26T12:47:42;3.90;;;2.30;;
76896;SDS011;65856;52.178;21.176;2024-02-26T12:50:10;2.60;;;2.40;;
76896;SDS011;65856;52.178;21.176;2024-02-26T12:52:45;3.20;;;2.40;;
76896;SDS011;65856;52.178;21.176;2024-02-26T12:55:16;3.00;;;2.30;;
76896;SDS011;65856;52.178;21.176;2024-02-26T12:57:44;2.70;;;2.00;;
76896;SDS011;65856;52.178;21.176;2024-02-26T13:00:16;3.20;;;2.20;;
76896;SDS011;65856;52.178;21.176;2024-02-26T13:02:44;3.20;;;2.30;;
76896;SDS011;65856;52.178;21.176;2024-02-26T13:05:11;3.00;;;2.40;;
76896;SDS011;65856;52.178;21.176;2024-02-26T13:07:45;4.10;;;2.20;;
76896;SDS011;65856;52.178;21.176;2024-02-26T13:10:14;2.50;;;2.30;;
76896;SDS011;65856;52.178;21.176;2024-02-26T13:12:44;2.80;;;2.30;;
76896;SDS011;65856;52.178;21.176;2024-02-26T13:15:15;4.20;;;2.30;;
76896;SDS011;65856;52.178;21.176;2024-02-26T13:17:47;4.20;;;2.40;;
76896;SDS011;65856;52.178;21.176;2024-02-26T13:20:26;5.20;;;2.60;;
76896;SDS011;65856;52.178;21.176;2024-02-26T13:23:02;3.50;;;2.60;;
76896;SDS011;65856;52.178;21.176;2024-02-26T13:25:31;4.80;;;2.50;;
76896;SDS011;65856;52.178;21.176;2024-02-26T13:28:14;3.70;;;2.40;;
76896;SDS011;65856;52.178;21.176;2024-02-26T13:30:41;5.60;;;2.60;;
76896;SDS011;65856;52.178;21.176;2024-02-26T13:33:09;5.90;;;2.50;;
76896;SDS011;65856;52.178;21.176;2024-02-26T13:35:35;4.30;;;3.10;;
76896;SDS011;65856;52.178;21.176;2024-02-26T13:38:02;3.70;;;2.80;;
76896;SDS011;65856;52.178;21.176;2024-02-26T13:40:28;7.90;;;3.70;;
76896;SDS011;65856;52.178;21.176;2024-02-26T13:42:54;3.90;;;2.60;;
76896;SDS011;65856;52.178;21.176;2024-02-26T13:45:19;4.70;;;2.80;;
76896;SDS011;65856;52.178;21.176;2024-02-26T13:47:45;4.20;;;2.80;;
76896;SDS011;65856;52.178;21.176;2024-02-26T13:50:10;3.70;;;2.20;;
76896;SDS011;65856;52.178;21.176;2024-02-26T13:52:36;3.50;;;2.50;;
76896;SDS011;65856;52.178;21.176;2024-02-26T13:55:01;3.00;;;2.30;;
76896;SDS011;65856;52.178;21.176;2024-02-26T13:57:28;4.10;;;2.00;;
76896;SDS011;65856;52.178;21.176;2024-02-26T13:59:54;3.30;;;2.20;;
76896;SDS011;65856;52.178;21.176;2024-02-26T14:02:20;3.40;;;2.30;;
76896;SDS011;65856;52.178;21.176;2024-02-26T14:04:46;3.10;;;2.30;;
76896;SDS011;65856;52.178;21.176;2024-02-26T14:07:12;2.60;;;2.20;;
76896;SDS011;65856;52.178;21.176;2024-02-26T14:09:38;4.10;;;2.30;;
76896;SDS011;65856;52.178;21.176;2024-02-26T14:12:04;5.10;;;2.60;;
76896;SDS011;65856;52.178;21.176;2024-02-26T14:14:30;3.20;;;2.30;;
76896;SDS011;65856;52.178;21.176;2024-02-26T14:16:58;2.80;;;2.10;;